sensor_id;sensor_type;location;lat;lon;timestamp;P1;durP1;ratioP1;P2;durP2;ratioP2
18657;SDS011;9458;50.942;5.074;2023-05-07T00:01:58;7.55;;;6.85;;
18657;SDS011;9458;50.942;5.074;2023-05-07T00:04:39;8.80;;;7.88;;
18657;SDS011;9458;50.942;5.074;2023-05-07T00:07:19;8.55;;;7.47;;
18657;SDS011;9458;50.942;5.074;2023-05-07T00:09:52;10.40;;;8.02;;
18657;SDS011;9458;50.942;5.074;2023-05-07T00:12:20;8.50;;;7.70;;
18657;SDS011;9458;50.942;5.074;2023-05-07T00:14:54;9.82;;;8.85;;
18657;SDS011;9458;50.942;5.074;2023-05-07T00:17:24;8.48;;;7.53;;
18657;SDS011;9458;50.942;5.074;2023-05-07T00:19:52;8.85;;;7.95;;
18657;SDS011;9458;50.942;5.074;2023-05-07T00:22:20;8.13;;;7.43;;
18657;SDS011;9458;50.942;5.074;2023-05-07T00:24:48;8.10;;;7.30;;
18657;SDS011;9458;50.942;5.074;2023-05-07T00:27:16;8.10;;;7.30;;
18657;SDS011;9458;50.942;5.074;2023-05-07T00:29:47;7.70;;;7.05;;
18657;SDS011;9458;50.942;5.074;2023-05-07T00:32:16;7.57;;;6.85;;
18657;SDS011;9458;50.942;5.074;2023-05-07T00:34:54;8.15;;;7.43;;
18657;SDS011;9458;50.942;5.074;2023-05-07T00:37:21;8.95;;;8.05;;
18657;SDS011;9458;50.942;5.074;2023-05-07T00:39:49;9.13;;;8.20;;
18657;SDS011;9458;50.942;5.074;2023-05-07T00:42:18;10.45;;;9.40;;
18657;SDS011;9458;50.942;5.074;2023-05-07T00:44:48;11.38;;;10.27;;
18657;SDS011;9458;50.942;5.074;2023-05-07T00:47:18;12.57;;;11.27;;
18657;SDS011;9458;50.942;5.074;2023-05-07T00:49:46;12.98;;;10.57;;
18657;SDS011;9458;50.942;5.074;2023-05-07T00:52:14;14.35;;;11.50;;
18657;SDS011;9458;50.942;5.074;2023-05-07T00:54:45;11.23;;;10.18;;
18657;SDS011;9458;50.942;5.074;2023-05-07T00:57:14;11.93;;;10.73;;
18657;SDS011;9458;50.942;5.074;2023-05-07T00:59:43;11.68;;;10.68;;
18657;SDS011;9458;50.942;5.074;2023-05-07T01:02:12;11.00;;;10.10;;
18657;SDS011;9458;50.942;5.074;2023-05-07T01:04:44;11.85;;;10.75;;
18657;SDS011;9458;50.942;5.074;2023-05-07T01:07:13;12.13;;;10.82;;
18657;SDS011;9458;50.942;5.074;2023-05-07T01:09:46;10.93;;;9.88;;
18657;SDS011;9458;50.942;5.074;2023-05-07T01:12:25;11.07;;;9.80;;
18657;SDS011;9458;50.942;5.074;2023-05-07T01:15:02;11.63;;;10.45;;
18657;SDS011;9458;50.942;5.074;2023-05-07T01:17:39;10.55;;;9.55;;
18657;SDS011;9458;50.942;5.074;2023-05-07T01:20:18;10.45;;;9.35;;
18657;SDS011;9458;50.942;5.074;2023-05-07T01:22:55;12.10;;;9.95;;
18657;SDS011;9458;50.942;5.074;2023-05-07T01:25:28;12.13;;;10.82;;
18657;SDS011;9458;50.942;5.074;2023-05-07T01:27:56;11.07;;;9.98;;
18657;SDS011;9458;50.942;5.074;2023-05-07T01:30:26;10.95;;;9.98;;
18657;SDS011;9458;50.942;5.074;2023-05-07T01:32:56;10.88;;;9.23;;
18657;SDS011;9458;50.942;5.074;2023-05-07T01:35:29;10.98;;;9.40;;
18657;SDS011;9458;50.942;5.074;2023-05-07T01:38:05;10.85;;;9.73;;
18657;SDS011;9458;50.942;5.074;2023-05-07T01:40:43;11.10;;;9.20;;
18657;SDS011;9458;50.942;5.074;2023-05-07T01:43:11;10.70;;;9.60;;
18657;SDS011;9458;50.942;5.074;2023-05-07T01:45:39;11.43;;;9.27;;
18657;SDS011;9458;50.942;5.074;2023-05-07T01:48:09;11.32;;;9.48;;
18657;SDS011;9458;50.942;5.074;2023-05-07T01:50:38;10.77;;;9.68;;
18657;SDS011;9458;50.942;5.074;2023-05-07T01:53:10;10.25;;;8.98;;
18657;SDS011;9458;50.942;5.074;2023-05-07T01:55:38;11.32;;;9.50;;
18657;SDS011;9458;50.942;5.074;2023-05-07T01:58:07;9.77;;;8.85;;
18657;SDS011;9458;50.942;5.074;2023-05-07T02:00:34;9.98;;;8.90;;
18657;SDS011;9458;50.942;5.074;2023-05-07T02:03:04;9.77;;;8.93;;
18657;SDS011;9458;50.942;5.074;2023-05-07T02:05:41;9.85;;;8.65;;
18657;SDS011;9458;50.942;5.074;2023-05-07T02:08:10;11.32;;;8.82;;
18657;SDS011;9458;50.942;5.074;2023-05-07T02:10:38;9.25;;;8.35;;
18657;SDS011;9458;50.942;5.074;2023-05-07T02:13:06;10.90;;;9.48;;
18657;SDS011;9458;50.942;5.074;2023-05-07T02:15:34;9.75;;;8.85;;
18657;SDS011;9458;50.942;5.074;2023-05-07T02:18:02;10.38;;;9.20;;
18657;SDS011;9458;50.942;5.074;2023-05-07T02:20:33;9.93;;;8.93;;
18657;SDS011;9458;50.942;5.074;2023-05-07T02:23:01;9.60;;;8.70;;
18657;SDS011;9458;50.942;5.074;2023-05-07T02:25:30;12.13;;;10.13;;
18657;SDS011;9458;50.942;5.074;2023-05-07T02:27:59;9.48;;;8.57;;
18657;SDS011;9458;50.942;5.074;2023-05-07T02:30:28;9.93;;;8.82;;
18657;SDS011;9458;50.942;5.074;2023-05-07T02:32:57;14.00;;;9.30;;
18657;SDS011;9458;50.942;5.074;2023-05-07T02:35:24;9.82;;;8.93;;
18657;SDS011;9458;50.942;5.074;2023-05-07T02:37:53;9.48;;;8.57;;
18657;SDS011;9458;50.942;5.074;2023-05-07T02:40:20;9.63;;;8.57;;
18657;SDS011;9458;50.942;5.074;2023-05-07T02:42:50;11.00;;;9.55;;
18657;SDS011;9458;50.942;5.074;2023-05-07T02:45:17;9.88;;;8.98;;
18657;SDS011;9458;50.942;5.074;2023-05-07T02:47:46;10.82;;;9.77;;
18657;SDS011;9458;50.942;5.074;2023-05-07T02:50:14;9.75;;;8.85;;
18657;SDS011;9458;50.942;5.074;2023-05-07T02:52:42;10.20;;;9.23;;
18657;SDS011;9458;50.942;5.074;2023-05-07T02:55:09;11.18;;;8.85;;
18657;SDS011;9458;50.942;5.074;2023-05-07T02:57:38;10.27;;;9.18;;
18657;SDS011;9458;50.942;5.074;2023-05-07T03:00:16;13.70;;;9.50;;
18657;SDS011;9458;50.942;5.074;2023-05-07T03:02:46;9.95;;;9.00;;
18657;SDS011;9458;50.942;5.074;2023-05-07T03:05:15;10.20;;;9.20;;
18657;SDS011;9458;50.942;5.074;2023-05-07T03:07:44;11.80;;;9.10;;
18657;SDS011;9458;50.942;5.074;2023-05-07T03:10:12;9.90;;;8.90;;
18657;SDS011;9458;50.942;5.074;2023-05-07T03:12:40;11.35;;;10.10;;
18657;SDS011;9458;50.942;5.074;2023-05-07T03:15:08;10.43;;;9.52;;
18657;SDS011;9458;50.942;5.074;2023-05-07T03:17:39;11.05;;;9.13;;
18657;SDS011;9458;50.942;5.074;2023-05-07T03:20:08;10.80;;;9.70;;
18657;SDS011;9458;50.942;5.074;2023-05-07T03:22:36;10.73;;;9.45;;
18657;SDS011;9458;50.942;5.074;2023-05-07T03:25:04;10.20;;;9.13;;
18657;SDS011;9458;50.942;5.074;2023-05-07T03:27:33;10.98;;;9.45;;
18657;SDS011;9458;50.942;5.074;2023-05-07T03:30:00;9.93;;;8.93;;
18657;SDS011;9458;50.942;5.074;2023-05-07T03:32:29;10.65;;;9.38;;
18657;SDS011;9458;50.942;5.074;2023-05-07T03:35:04;10.23;;;9.23;;
18657;SDS011;9458;50.942;5.074;2023-05-07T03:37:37;10.65;;;9.55;;
18657;SDS011;9458;50.942;5.074;2023-05-07T03:40:10;11.90;;;8.98;;
18657;SDS011;9458;50.942;5.074;2023-05-07T03:42:42;9.95;;;8.93;;
18657;SDS011;9458;50.942;5.074;2023-05-07T03:45:14;10.43;;;9.38;;
18657;SDS011;9458;50.942;5.074;2023-05-07T03:47:46;10.40;;;9.32;;
18657;SDS011;9458;50.942;5.074;2023-05-07T03:50:19;11.95;;;9.32;;
18657;SDS011;9458;50.942;5.074;2023-05-07T03:52:50;9.63;;;8.73;;
18657;SDS011;9458;50.942;5.074;2023-05-07T03:55:20;10.10;;;9.02;;
18657;SDS011;9458;50.942;5.074;2023-05-07T03:57:52;10.35;;;9.25;;
18657;SDS011;9458;50.942;5.074;2023-05-07T04:00:21;11.32;;;9.52;;
18657;SDS011;9458;50.942;5.074;2023-05-07T04:02:51;13.25;;;10.35;;
18657;SDS011;9458;50.942;5.074;2023-05-07T04:05:21;10.45;;;9.38;;
18657;SDS011;9458;50.942;5.074;2023-05-07T04:07:50;11.75;;;10.27;;
18657;SDS011;9458;50.942;5.074;2023-05-07T04:10:20;11.63;;;9.95;;
18657;SDS011;9458;50.942;5.074;2023-05-07T04:12:58;10.77;;;9.77;;
18657;SDS011;9458;50.942;5.074;2023-05-07T04:15:28;10.80;;;9.75;;
18657;SDS011;9458;50.942;5.074;2023-05-07T04:18:01;11.48;;;10.18;;
18657;SDS011;9458;50.942;5.074;2023-05-07T04:20:33;10.70;;;9.60;;
18657;SDS011;9458;50.942;5.074;2023-05-07T04:23:02;9.60;;;8.70;;
18657;SDS011;9458;50.942;5.074;2023-05-07T04:25:29;10.00;;;9.10;;
18657;SDS011;9458;50.942;5.074;2023-05-07T04:27:57;11.27;;;10.07;;
18657;SDS011;9458;50.942;5.074;2023-05-07T04:30:25;10.80;;;9.57;;
18657;SDS011;9458;50.942;5.074;2023-05-07T04:32:52;11.70;;;9.75;;
18657;SDS011;9458;50.942;5.074;2023-05-07T04:35:20;10.75;;;9.63;;
18657;SDS011;9458;50.942;5.074;2023-05-07T04:37:51;11.45;;;10.20;;
18657;SDS011;9458;50.942;5.074;2023-05-07T04:40:19;13.50;;;9.70;;
18657;SDS011;9458;50.942;5.074;2023-05-07T04:42:46;11.38;;;10.13;;
18657;SDS011;9458;50.942;5.074;2023-05-07T04:45:15;11.20;;;9.88;;
18657;SDS011;9458;50.942;5.074;2023-05-07T04:47:45;10.20;;;9.20;;
18657;SDS011;9458;50.942;5.074;2023-05-07T04:50:12;10.98;;;9.63;;
18657;SDS011;9458;50.942;5.074;2023-05-07T04:52:41;10.32;;;9.38;;
18657;SDS011;9458;50.942;5.074;2023-05-07T04:55:11;10.05;;;9.10;;
18657;SDS011;9458;50.942;5.074;2023-05-07T04:57:39;10.40;;;9.25;;
18657;SDS011;9458;50.942;5.074;2023-05-07T05:00:10;11.77;;;9.25;;
18657;SDS011;9458;50.942;5.074;2023-05-07T05:02:46;10.35;;;9.35;;
18657;SDS011;9458;50.942;5.074;2023-05-07T05:05:16;11.15;;;9.73;;
18657;SDS011;9458;50.942;5.074;2023-05-07T05:07:43;12.40;;;9.93;;
18657;SDS011;9458;50.942;5.074;2023-05-07T05:10:16;11.05;;;9.82;;
18657;SDS011;9458;50.942;5.074;2023-05-07T05:12:46;10.82;;;9.60;;
18657;SDS011;9458;50.942;5.074;2023-05-07T05:15:16;11.57;;;9.82;;
18657;SDS011;9458;50.942;5.074;2023-05-07T05:17:43;10.63;;;9.45;;
18657;SDS011;9458;50.942;5.074;2023-05-07T05:20:11;10.98;;;9.95;;
18657;SDS011;9458;50.942;5.074;2023-05-07T05:22:44;10.85;;;9.52;;
18657;SDS011;9458;50.942;5.074;2023-05-07T05:25:12;10.75;;;9.65;;
18657;SDS011;9458;50.942;5.074;2023-05-07T05:27:42;10.32;;;9.32;;
18657;SDS011;9458;50.942;5.074;2023-05-07T05:30:10;10.60;;;9.70;;
18657;SDS011;9458;50.942;5.074;2023-05-07T05:32:41;10.15;;;9.18;;
18657;SDS011;9458;50.942;5.074;2023-05-07T05:35:10;10.88;;;9.77;;
18657;SDS011;9458;50.942;5.074;2023-05-07T05:37:39;10.40;;;9.35;;
18657;SDS011;9458;50.942;5.074;2023-05-07T05:40:11;10.70;;;9.68;;
18657;SDS011;9458;50.942;5.074;2023-05-07T05:42:40;10.25;;;9.25;;
18657;SDS011;9458;50.942;5.074;2023-05-07T05:45:09;10.30;;;9.30;;
18657;SDS011;9458;50.942;5.074;2023-05-07T05:47:37;12.20;;;10.07;;
18657;SDS011;9458;50.942;5.074;2023-05-07T05:50:06;9.93;;;8.93;;
18657;SDS011;9458;50.942;5.074;2023-05-07T05:52:34;10.10;;;9.10;;
18657;SDS011;9458;50.942;5.074;2023-05-07T05:55:08;9.82;;;8.75;;
18657;SDS011;9458;50.942;5.074;2023-05-07T05:57:37;10.20;;;9.13;;
18657;SDS011;9458;50.942;5.074;2023-05-07T06:00:08;10.60;;;9.60;;
18657;SDS011;9458;50.942;5.074;2023-05-07T06:02:42;10.82;;;9.15;;
18657;SDS011;9458;50.942;5.074;2023-05-07T06:05:19;10.43;;;9.43;;
18657;SDS011;9458;50.942;5.074;2023-05-07T06:07:56;10.68;;;9.65;;
18657;SDS011;9458;50.942;5.074;2023-05-07T06:10:29;10.93;;;9.35;;
18657;SDS011;9458;50.942;5.074;2023-05-07T06:13:03;10.98;;;9.90;;
18657;SDS011;9458;50.942;5.074;2023-05-07T06:15:42;10.50;;;9.50;;
18657;SDS011;9458;50.942;5.074;2023-05-07T06:18:18;11.10;;;10.00;;
18657;SDS011;9458;50.942;5.074;2023-05-07T06:20:51;10.68;;;9.68;;
18657;SDS011;9458;50.942;5.074;2023-05-07T06:23:20;11.57;;;10.38;;
18657;SDS011;9458;50.942;5.074;2023-05-07T06:25:48;10.93;;;9.55;;
18657;SDS011;9458;50.942;5.074;2023-05-07T06:28:17;10.77;;;9.60;;
18657;SDS011;9458;50.942;5.074;2023-05-07T06:30:46;11.07;;;10.07;;
18657;SDS011;9458;50.942;5.074;2023-05-07T06:33:16;11.77;;;10.10;;
18657;SDS011;9458;50.942;5.074;2023-05-07T06:35:45;10.88;;;9.88;;
18657;SDS011;9458;50.942;5.074;2023-05-07T06:38:18;10.52;;;9.52;;
18657;SDS011;9458;50.942;5.074;2023-05-07T06:40:48;10.65;;;9.55;;
18657;SDS011;9458;50.942;5.074;2023-05-07T06:43:16;11.50;;;10.38;;
18657;SDS011;9458;50.942;5.074;2023-05-07T06:45:43;10.05;;;9.13;;
18657;SDS011;9458;50.942;5.074;2023-05-07T06:48:14;11.82;;;9.90;;
18657;SDS011;9458;50.942;5.074;2023-05-07T06:50:42;11.38;;;10.27;;
18657;SDS011;9458;50.942;5.074;2023-05-07T06:53:10;11.40;;;9.43;;
18657;SDS011;9458;50.942;5.074;2023-05-07T06:55:39;10.25;;;9.25;;
18657;SDS011;9458;50.942;5.074;2023-05-07T06:58:09;11.02;;;9.60;;
18657;SDS011;9458;50.942;5.074;2023-05-07T07:00:37;9.68;;;8.77;;
18657;SDS011;9458;50.942;5.074;2023-05-07T07:03:08;10.15;;;9.15;;
18657;SDS011;9458;50.942;5.074;2023-05-07T07:05:37;9.18;;;8.27;;
18657;SDS011;9458;50.942;5.074;2023-05-07T07:08:05;9.30;;;8.40;;
18657;SDS011;9458;50.942;5.074;2023-05-07T07:10:34;9.13;;;8.32;;
18657;SDS011;9458;50.942;5.074;2023-05-07T07:13:02;8.80;;;8.00;;
18657;SDS011;9458;50.942;5.074;2023-05-07T07:15:30;8.98;;;8.18;;
18657;SDS011;9458;50.942;5.074;2023-05-07T07:18:00;9.60;;;8.60;;
18657;SDS011;9458;50.942;5.074;2023-05-07T07:20:29;9.98;;;8.77;;
18657;SDS011;9458;50.942;5.074;2023-05-07T07:22:58;8.85;;;7.97;;
18657;SDS011;9458;50.942;5.074;2023-05-07T07:25:26;8.75;;;7.95;;
18657;SDS011;9458;50.942;5.074;2023-05-07T07:27:53;8.80;;;7.97;;
18657;SDS011;9458;50.942;5.074;2023-05-07T07:30:21;8.85;;;7.95;;
18657;SDS011;9458;50.942;5.074;2023-05-07T07:32:49;9.35;;;8.45;;
18657;SDS011;9458;50.942;5.074;2023-05-07T07:35:19;8.35;;;7.57;;
18657;SDS011;9458;50.942;5.074;2023-05-07T07:37:46;8.13;;;7.43;;
18657;SDS011;9458;50.942;5.074;2023-05-07T07:40:17;8.27;;;7.57;;
18657;SDS011;9458;50.942;5.074;2023-05-07T07:42:45;7.88;;;7.07;;
18657;SDS011;9458;50.942;5.074;2023-05-07T07:45:13;8.32;;;7.47;;
18657;SDS011;9458;50.942;5.074;2023-05-07T07:47:43;9.23;;;7.28;;
18657;SDS011;9458;50.942;5.074;2023-05-07T07:50:11;9.32;;;6.97;;
18657;SDS011;9458;50.942;5.074;2023-05-07T07:52:44;8.40;;;7.45;;
18657;SDS011;9458;50.942;5.074;2023-05-07T07:55:11;7.50;;;6.80;;
18657;SDS011;9458;50.942;5.074;2023-05-07T07:57:44;9.65;;;7.10;;
18657;SDS011;9458;50.942;5.074;2023-05-07T08:00:12;7.35;;;6.65;;
18657;SDS011;9458;50.942;5.074;2023-05-07T08:02:50;10.98;;;7.80;;
18657;SDS011;9458;50.942;5.074;2023-05-07T08:05:17;6.80;;;6.20;;
18657;SDS011;9458;50.942;5.074;2023-05-07T08:07:46;8.35;;;5.78;;
18657;SDS011;9458;50.942;5.074;2023-05-07T08:10:17;8.32;;;5.68;;
18657;SDS011;9458;50.942;5.074;2023-05-07T08:12:48;7.28;;;5.70;;
18657;SDS011;9458;50.942;5.074;2023-05-07T08:15:16;9.45;;;5.90;;
18657;SDS011;9458;50.942;5.074;2023-05-07T08:17:45;8.70;;;5.63;;
18657;SDS011;9458;50.942;5.074;2023-05-07T08:20:13;7.25;;;5.20;;
18657;SDS011;9458;50.942;5.074;2023-05-07T08:22:41;6.97;;;5.53;;
18657;SDS011;9458;50.942;5.074;2023-05-07T08:25:09;7.75;;;5.20;;
18657;SDS011;9458;50.942;5.074;2023-05-07T08:27:37;6.65;;;5.50;;
18657;SDS011;9458;50.942;5.074;2023-05-07T08:30:10;8.38;;;5.40;;
18657;SDS011;9458;50.942;5.074;2023-05-07T08:32:40;7.45;;;5.53;;
18657;SDS011;9458;50.942;5.074;2023-05-07T08:35:08;7.40;;;6.40;;
18657;SDS011;9458;50.942;5.074;2023-05-07T08:37:36;8.45;;;5.82;;
18657;SDS011;9458;50.942;5.074;2023-05-07T08:40:04;8.98;;;5.47;;
18657;SDS011;9458;50.942;5.074;2023-05-07T08:42:34;8.05;;;5.65;;
18657;SDS011;9458;50.942;5.074;2023-05-07T08:45:04;6.88;;;5.53;;
18657;SDS011;9458;50.942;5.074;2023-05-07T08:47:40;11.45;;;6.55;;
18657;SDS011;9458;50.942;5.074;2023-05-07T08:50:11;6.30;;;5.40;;
18657;SDS011;9458;50.942;5.074;2023-05-07T08:52:39;8.95;;;6.57;;
18657;SDS011;9458;50.942;5.074;2023-05-07T08:55:09;9.07;;;6.03;;
18657;SDS011;9458;50.942;5.074;2023-05-07T08:57:38;7.50;;;6.10;;
18657;SDS011;9458;50.942;5.074;2023-05-07T09:00:08;9.00;;;6.15;;
18657;SDS011;9458;50.942;5.074;2023-05-07T09:02:37;8.50;;;5.22;;
18657;SDS011;9458;50.942;5.074;2023-05-07T09:05:06;6.07;;;5.32;;
18657;SDS011;9458;50.942;5.074;2023-05-07T09:07:35;7.80;;;4.80;;
18657;SDS011;9458;50.942;5.074;2023-05-07T09:10:02;8.07;;;5.30;;
18657;SDS011;9458;50.942;5.074;2023-05-07T09:12:32;7.88;;;4.60;;
18657;SDS011;9458;50.942;5.074;2023-05-07T09:15:00;7.47;;;4.35;;
18657;SDS011;9458;50.942;5.074;2023-05-07T09:17:32;5.32;;;4.82;;
18657;SDS011;9458;50.942;5.074;2023-05-07T09:20:01;7.65;;;5.68;;
18657;SDS011;9458;50.942;5.074;2023-05-07T09:22:31;10.02;;;5.55;;
18657;SDS011;9458;50.942;5.074;2023-05-07T09:25:00;7.38;;;5.50;;
18657;SDS011;9458;50.942;5.074;2023-05-07T09:27:29;6.93;;;5.45;;
18657;SDS011;9458;50.942;5.074;2023-05-07T09:29:57;6.85;;;5.25;;
18657;SDS011;9458;50.942;5.074;2023-05-07T09:32:25;8.30;;;5.53;;
18657;SDS011;9458;50.942;5.074;2023-05-07T09:34:57;5.78;;;5.15;;
18657;SDS011;9458;50.942;5.074;2023-05-07T09:37:28;7.00;;;4.68;;
18657;SDS011;9458;50.942;5.074;2023-05-07T09:39:58;8.07;;;5.32;;
18657;SDS011;9458;50.942;5.074;2023-05-07T09:42:25;7.72;;;5.53;;
18657;SDS011;9458;50.942;5.074;2023-05-07T09:44:54;8.40;;;4.88;;
18657;SDS011;9458;50.942;5.074;2023-05-07T09:47:23;6.60;;;5.03;;
18657;SDS011;9458;50.942;5.074;2023-05-07T09:49:57;9.77;;;5.38;;
18657;SDS011;9458;50.942;5.074;2023-05-07T09:52:29;7.93;;;5.00;;
18657;SDS011;9458;50.942;5.074;2023-05-07T09:54:58;6.15;;;4.82;;
18657;SDS011;9458;50.942;5.074;2023-05-07T09:57:28;8.13;;;4.88;;
18657;SDS011;9458;50.942;5.074;2023-05-07T09:59:56;7.03;;;4.47;;
18657;SDS011;9458;50.942;5.074;2023-05-07T10:02:28;4.75;;;4.13;;
18657;SDS011;9458;50.942;5.074;2023-05-07T10:05:10;5.38;;;4.03;;
18657;SDS011;9458;50.942;5.074;2023-05-07T10:07:39;6.45;;;3.67;;
18657;SDS011;9458;50.942;5.074;2023-05-07T10:10:09;5.05;;;3.80;;
18657;SDS011;9458;50.942;5.074;2023-05-07T10:12:38;5.93;;;3.83;;
18657;SDS011;9458;50.942;5.074;2023-05-07T10:15:07;5.10;;;3.90;;
18657;SDS011;9458;50.942;5.074;2023-05-07T10:17:37;7.35;;;4.32;;
18657;SDS011;9458;50.942;5.074;2023-05-07T10:20:06;5.85;;;4.20;;
18657;SDS011;9458;50.942;5.074;2023-05-07T10:22:38;9.50;;;5.50;;
18657;SDS011;9458;50.942;5.074;2023-05-07T10:25:09;6.40;;;3.70;;
18657;SDS011;9458;50.942;5.074;2023-05-07T10:27:45;6.38;;;4.53;;
18657;SDS011;9458;50.942;5.074;2023-05-07T10:30:17;5.93;;;4.03;;
18657;SDS011;9458;50.942;5.074;2023-05-07T10:32:53;7.32;;;4.43;;
18657;SDS011;9458;50.942;5.074;2023-05-07T10:35:22;8.75;;;4.78;;
18657;SDS011;9458;50.942;5.074;2023-05-07T10:37:55;5.80;;;4.10;;
18657;SDS011;9458;50.942;5.074;2023-05-07T10:40:23;6.22;;;4.10;;
18657;SDS011;9458;50.942;5.074;2023-05-07T10:42:54;6.82;;;4.70;;
18657;SDS011;9458;50.942;5.074;2023-05-07T10:45:23;6.88;;;4.50;;
18657;SDS011;9458;50.942;5.074;2023-05-07T10:48:10;5.15;;;4.55;;
18657;SDS011;9458;50.942;5.074;2023-05-07T10:50:39;6.25;;;4.05;;
18657;SDS011;9458;50.942;5.074;2023-05-07T10:53:23;8.07;;;4.65;;
18657;SDS011;9458;50.942;5.074;2023-05-07T10:58:51;6.97;;;4.65;;
18657;SDS011;9458;50.942;5.074;2023-05-07T11:04:35;6.07;;;4.63;;
18657;SDS011;9458;50.942;5.074;2023-05-07T11:08:04;6.72;;;5.40;;
18657;SDS011;9458;50.942;5.074;2023-05-07T11:10:49;8.10;;;4.80;;
18657;SDS011;9458;50.942;5.074;2023-05-07T11:13:18;6.07;;;4.65;;
18657;SDS011;9458;50.942;5.074;2023-05-07T11:16:00;7.95;;;4.55;;
18657;SDS011;9458;50.942;5.074;2023-05-07T11:18:38;6.78;;;4.90;;
18657;SDS011;9458;50.942;5.074;2023-05-07T11:24:04;5.38;;;4.40;;
18657;SDS011;9458;50.942;5.074;2023-05-07T11:26:45;6.53;;;4.43;;
18657;SDS011;9458;50.942;5.074;2023-05-07T11:29:14;7.40;;;4.82;;
18657;SDS011;9458;50.942;5.074;2023-05-07T11:31:43;4.97;;;4.45;;
18657;SDS011;9458;50.942;5.074;2023-05-07T11:34:11;5.05;;;4.50;;
18657;SDS011;9458;50.942;5.074;2023-05-07T11:36:42;8.40;;;5.00;;
18657;SDS011;9458;50.942;5.074;2023-05-07T11:39:28;6.57;;;5.38;;
18657;SDS011;9458;50.942;5.074;2023-05-07T11:41:59;6.78;;;5.30;;
18657;SDS011;9458;50.942;5.074;2023-05-07T11:44:39;8.27;;;4.95;;
18657;SDS011;9458;50.942;5.074;2023-05-07T11:47:11;8.48;;;5.57;;
18657;SDS011;9458;50.942;5.074;2023-05-07T11:49:47;8.23;;;5.50;;
18657;SDS011;9458;50.942;5.074;2023-05-07T11:52:15;6.97;;;4.97;;
18657;SDS011;9458;50.942;5.074;2023-05-07T11:54:48;6.60;;;5.45;;
18657;SDS011;9458;50.942;5.074;2023-05-07T11:57:18;5.32;;;4.93;;
18657;SDS011;9458;50.942;5.074;2023-05-07T11:59:46;6.10;;;4.35;;
18657;SDS011;9458;50.942;5.074;2023-05-07T12:02:13;6.38;;;4.20;;
18657;SDS011;9458;50.942;5.074;2023-05-07T12:04:42;5.68;;;3.75;;
18657;SDS011;9458;50.942;5.074;2023-05-07T12:07:11;4.43;;;3.88;;
18657;SDS011;9458;50.942;5.074;2023-05-07T12:09:39;5.50;;;4.00;;
18657;SDS011;9458;50.942;5.074;2023-05-07T12:12:07;3.90;;;3.50;;
18657;SDS011;9458;50.942;5.074;2023-05-07T12:14:39;7.60;;;3.15;;
18657;SDS011;9458;50.942;5.074;2023-05-07T12:17:08;5.18;;;3.55;;
18657;SDS011;9458;50.942;5.074;2023-05-07T12:19:37;5.78;;;4.25;;
18657;SDS011;9458;50.942;5.074;2023-05-07T12:22:06;5.20;;;3.70;;
18657;SDS011;9458;50.942;5.074;2023-05-07T12:24:45;4.95;;;3.47;;
18657;SDS011;9458;50.942;5.074;2023-05-07T12:27:14;5.75;;;3.60;;
18657;SDS011;9458;50.942;5.074;2023-05-07T12:29:48;6.18;;;3.55;;
18657;SDS011;9458;50.942;5.074;2023-05-07T12:32:19;8.65;;;3.80;;
18657;SDS011;9458;50.942;5.074;2023-05-07T12:34:49;4.95;;;3.80;;
18657;SDS011;9458;50.942;5.074;2023-05-07T12:37:22;5.28;;;4.05;;
18657;SDS011;9458;50.942;5.074;2023-05-07T12:40:03;5.93;;;3.75;;
18657;SDS011;9458;50.942;5.074;2023-05-07T12:42:32;6.57;;;4.10;;
18657;SDS011;9458;50.942;5.074;2023-05-07T12:45:10;6.68;;;4.15;;
18657;SDS011;9458;50.942;5.074;2023-05-07T12:47:38;4.15;;;3.70;;
18657;SDS011;9458;50.942;5.074;2023-05-07T12:50:06;6.93;;;3.72;;
18657;SDS011;9458;50.942;5.074;2023-05-07T12:52:34;5.30;;;3.53;;
18657;SDS011;9458;50.942;5.074;2023-05-07T12:55:05;5.75;;;3.28;;
18657;SDS011;9458;50.942;5.074;2023-05-07T12:57:37;5.05;;;2.80;;
18657;SDS011;9458;50.942;5.074;2023-05-07T13:00:07;4.75;;;3.17;;
18657;SDS011;9458;50.942;5.074;2023-05-07T13:02:46;5.63;;;2.92;;
18657;SDS011;9458;50.942;5.074;2023-05-07T13:05:14;4.28;;;3.00;;
18657;SDS011;9458;50.942;5.074;2023-05-07T13:07:41;4.25;;;2.70;;
18657;SDS011;9458;50.942;5.074;2023-05-07T13:10:19;4.03;;;2.70;;
18657;SDS011;9458;50.942;5.074;2023-05-07T13:12:48;4.32;;;2.80;;
18657;SDS011;9458;50.942;5.074;2023-05-07T13:15:17;3.63;;;2.70;;
18657;SDS011;9458;50.942;5.074;2023-05-07T13:17:44;4.97;;;2.60;;
18657;SDS011;9458;50.942;5.074;2023-05-07T13:20:12;3.83;;;2.10;;
18657;SDS011;9458;50.942;5.074;2023-05-07T13:22:41;5.80;;;2.42;;
18657;SDS011;9458;50.942;5.074;2023-05-07T13:25:09;4.50;;;2.42;;
18657;SDS011;9458;50.942;5.074;2023-05-07T13:27:37;2.80;;;2.42;;
18657;SDS011;9458;50.942;5.074;2023-05-07T13:30:05;6.00;;;3.40;;
18657;SDS011;9458;50.942;5.074;2023-05-07T13:32:35;3.80;;;3.30;;
18657;SDS011;9458;50.942;5.074;2023-05-07T13:35:02;4.28;;;3.40;;
18657;SDS011;9458;50.942;5.074;2023-05-07T13:37:30;5.18;;;4.15;;
18657;SDS011;9458;50.942;5.074;2023-05-07T13:39:58;5.20;;;4.05;;
18657;SDS011;9458;50.942;5.074;2023-05-07T13:42:25;5.40;;;4.13;;
18657;SDS011;9458;50.942;5.074;2023-05-07T13:44:53;5.88;;;3.92;;
18657;SDS011;9458;50.942;5.074;2023-05-07T13:47:20;5.03;;;4.43;;
18657;SDS011;9458;50.942;5.074;2023-05-07T13:49:49;5.88;;;3.83;;
18657;SDS011;9458;50.942;5.074;2023-05-07T13:52:17;4.20;;;3.13;;
18657;SDS011;9458;50.942;5.074;2023-05-07T13:54:44;4.78;;;3.25;;
18657;SDS011;9458;50.942;5.074;2023-05-07T13:57:12;6.82;;;3.60;;
18657;SDS011;9458;50.942;5.074;2023-05-07T13:59:43;6.15;;;3.67;;
18657;SDS011;9458;50.942;5.074;2023-05-07T14:02:10;5.45;;;3.50;;
18657;SDS011;9458;50.942;5.074;2023-05-07T14:04:50;6.60;;;3.58;;
18657;SDS011;9458;50.942;5.074;2023-05-07T14:07:18;4.25;;;3.40;;
18657;SDS011;9458;50.942;5.074;2023-05-07T14:09:47;4.30;;;3.25;;
18657;SDS011;9458;50.942;5.074;2023-05-07T14:12:14;6.60;;;3.72;;
18657;SDS011;9458;50.942;5.074;2023-05-07T14:14:42;4.20;;;3.63;;
18657;SDS011;9458;50.942;5.074;2023-05-07T14:17:10;4.32;;;3.58;;
18657;SDS011;9458;50.942;5.074;2023-05-07T14:19:38;4.53;;;3.53;;
18657;SDS011;9458;50.942;5.074;2023-05-07T14:22:07;4.15;;;3.38;;
18657;SDS011;9458;50.942;5.074;2023-05-07T14:24:34;5.35;;;3.53;;
18657;SDS011;9458;50.942;5.074;2023-05-07T14:27:02;4.75;;;3.60;;
18657;SDS011;9458;50.942;5.074;2023-05-07T14:29:29;4.93;;;3.63;;
18657;SDS011;9458;50.942;5.074;2023-05-07T14:31:57;5.07;;;3.33;;
18657;SDS011;9458;50.942;5.074;2023-05-07T14:34:24;6.30;;;3.40;;
18657;SDS011;9458;50.942;5.074;2023-05-07T14:36:51;4.30;;;3.42;;
18657;SDS011;9458;50.942;5.074;2023-05-07T14:39:21;7.13;;;3.38;;
18657;SDS011;9458;50.942;5.074;2023-05-07T14:41:48;8.23;;;3.33;;
18657;SDS011;9458;50.942;5.074;2023-05-07T14:44:15;5.13;;;3.20;;
18657;SDS011;9458;50.942;5.074;2023-05-07T14:46:43;5.72;;;3.13;;
18657;SDS011;9458;50.942;5.074;2023-05-07T14:49:10;5.22;;;3.22;;
18657;SDS011;9458;50.942;5.074;2023-05-07T14:51:42;4.95;;;3.05;;
18657;SDS011;9458;50.942;5.074;2023-05-07T14:54:10;3.92;;;2.85;;
18657;SDS011;9458;50.942;5.074;2023-05-07T14:56:40;3.28;;;2.60;;
18657;SDS011;9458;50.942;5.074;2023-05-07T14:59:08;4.47;;;2.80;;
18657;SDS011;9458;50.942;5.074;2023-05-07T15:01:37;3.97;;;3.35;;
18657;SDS011;9458;50.942;5.074;2023-05-07T15:04:05;3.67;;;3.33;;
18657;SDS011;9458;50.942;5.074;2023-05-07T15:06:33;4.63;;;2.90;;
18657;SDS011;9458;50.942;5.074;2023-05-07T15:09:00;6.60;;;2.80;;
18657;SDS011;9458;50.942;5.074;2023-05-07T15:11:28;3.03;;;2.53;;
18657;SDS011;9458;50.942;5.074;2023-05-07T15:13:57;5.47;;;2.40;;
18657;SDS011;9458;50.942;5.074;2023-05-07T15:16:26;3.58;;;2.38;;
18657;SDS011;9458;50.942;5.074;2023-05-07T15:18:53;3.97;;;2.60;;
18657;SDS011;9458;50.942;5.074;2023-05-07T15:21:21;4.28;;;2.60;;
18657;SDS011;9458;50.942;5.074;2023-05-07T15:23:48;4.90;;;2.70;;